createdAt,value
2023-09-22T00:00:15.609Z,15.74
2023-09-22T00:02:44.767Z,15.84
2023-09-22T00:05:13.389Z,15.91
2023-09-22T00:07:41.222Z,15.86
2023-09-22T00:10:10.356Z,15.82
2023-09-22T00:12:38.190Z,15.86
2023-09-22T00:15:06.502Z,15.92
2023-09-22T00:17:37.339Z,15.71
2023-09-22T00:20:09.169Z,15.66
2023-09-22T00:22:36.942Z,15.73
2023-09-22T00:25:05.121Z,15.79
2023-09-22T00:27:33.004Z,15.78
2023-09-22T00:30:00.836Z,15.81
2023-09-22T00:32:28.587Z,15.55
2023-09-22T00:34:59.958Z,15.75
2023-09-22T00:37:27.543Z,15.62
2023-09-22T00:39:55.241Z,15.60
2023-09-22T00:42:23.043Z,15.53
2023-09-22T00:44:51.558Z,15.61
2023-09-22T00:47:19.700Z,15.44
2023-09-22T00:49:49.683Z,15.61
2023-09-22T00:52:19.986Z,15.68
2023-09-22T00:54:49.877Z,15.66
2023-09-22T00:57:18.809Z,15.66
2023-09-22T00:59:48.527Z,15.65
2023-09-22T01:02:16.710Z,15.61
2023-09-22T01:04:44.506Z,15.60
2023-09-22T01:07:12.305Z,15.58
2023-09-22T01:09:42.687Z,15.55
2023-09-22T01:12:10.854Z,15.46
2023-09-22T01:14:38.520Z,15.45
2023-09-22T01:17:07.538Z,15.50
2023-09-22T01:19:35.821Z,15.32
2023-09-22T01:22:06.236Z,15.38
2023-09-22T01:24:34.045Z,15.19
2023-09-22T01:27:04.081Z,15.35
2023-09-22T01:29:31.867Z,15.41
2023-09-22T01:31:59.570Z,15.42
2023-09-22T01:34:27.414Z,15.52
2023-09-22T01:36:55.172Z,15.48
2023-09-22T01:39:24.705Z,15.56
2023-09-22T01:41:52.833Z,15.61
2023-09-22T01:44:20.518Z,15.48
2023-09-22T01:46:48.260Z,15.54
2023-09-22T01:49:15.941Z,15.52
2023-09-22T01:51:43.675Z,15.28
2023-09-22T01:54:11.282Z,15.27
2023-09-22T01:56:40.312Z,15.26
2023-09-22T01:59:08.651Z,15.22
2023-09-22T02:01:36.335Z,15.17
2023-09-22T02:04:04.778Z,15.14
2023-09-22T02:06:32.656Z,15.04
2023-09-22T02:09:00.606Z,15.19
2023-09-22T02:11:28.264Z,15.24
2023-09-22T02:13:57.251Z,15.21
2023-09-22T02:16:25.324Z,15.44
2023-09-22T02:18:53.127Z,15.55
2023-09-22T02:21:20.871Z,15.58
2023-09-22T02:23:48.485Z,15.51
2023-09-22T02:26:16.217Z,15.61
2023-09-22T02:28:44.187Z,15.48
2023-09-22T02:31:13.688Z,15.54
2023-09-22T02:33:41.467Z,15.46
2023-09-22T02:36:09.240Z,15.23
2023-09-22T02:38:37.076Z,15.04
2023-09-22T02:41:04.939Z,15.39
2023-09-22T02:43:32.579Z,15.19
2023-09-22T02:46:04.895Z,15.03
2023-09-22T02:48:34.086Z,14.86
2023-09-22T02:51:01.732Z,14.72
2023-09-22T02:53:29.459Z,14.63
2023-09-22T02:55:57.431Z,14.81
2023-09-22T02:58:25.376Z,14.49
2023-09-22T03:00:53.106Z,14.63
2023-09-22T03:03:20.941Z,14.49
2023-09-22T03:05:50.175Z,14.75
2023-09-22T03:08:18.022Z,14.77
2023-09-22T03:10:45.718Z,14.80
2023-09-22T03:13:13.769Z,14.77
2023-09-22T03:15:41.507Z,14.84
2023-09-22T03:18:09.777Z,14.90
2023-09-22T03:20:37.494Z,14.90
2023-09-22T03:23:06.697Z,14.72
2023-09-22T03:25:34.846Z,14.82
2023-09-22T03:28:02.817Z,14.77
2023-09-22T03:30:30.578Z,14.68
2023-09-22T03:33:00.027Z,14.63
2023-09-22T03:35:27.879Z,14.61
2023-09-22T03:37:56.822Z,14.65
2023-09-22T03:40:32.551Z,14.54
2023-09-22T03:43:00.899Z,14.36
2023-09-22T03:45:28.795Z,14.48
2023-09-22T03:47:56.805Z,14.44
2023-09-22T03:50:24.424Z,14.46
2023-09-22T03:52:52.058Z,14.40
2023-09-22T03:55:20.926Z,14.46
2023-09-22T03:57:50.627Z,14.57
2023-09-22T04:00:20.787Z,14.69
2023-09-22T04:02:51.196Z,14.69
2023-09-22T04:05:19.085Z,14.78
2023-09-22T04:07:46.752Z,14.93
2023-09-22T04:10:14.481Z,14.94
2023-09-22T04:12:42.198Z,15.05
2023-09-22T04:15:12.303Z,15.18
2023-09-22T04:17:40.370Z,15.22
2023-09-22T04:20:09.899Z,15.04
2023-09-22T04:22:38.710Z,14.95
2023-09-22T04:25:11.358Z,15.16
2023-09-22T04:27:44.466Z,15.13
2023-09-22T04:30:17.772Z,15.14
2023-09-22T04:32:46.199Z,15.15
2023-09-22T04:35:14.138Z,15.08
2023-09-22T04:37:42.181Z,15.28
2023-09-22T04:40:24.163Z,15.45
2023-09-22T04:42:51.956Z,15.31
2023-09-22T04:45:22.591Z,15.47
2023-09-22T04:47:53.117Z,15.53
2023-09-22T04:50:24.769Z,15.41
2023-09-22T04:52:54.160Z,15.29
2023-09-22T04:55:22.169Z,15.55
2023-09-22T04:57:50.295Z,15.62
2023-09-22T05:00:18.232Z,15.47
2023-09-22T05:02:47.540Z,15.33
2023-09-22T05:05:17.823Z,15.44
2023-09-22T05:07:45.673Z,15.49
2023-09-22T05:10:13.908Z,15.46
2023-09-22T05:12:41.613Z,15.31
2023-09-22T05:15:10.675Z,15.27
2023-09-22T05:17:38.422Z,15.19
2023-09-22T05:20:13.617Z,15.27
2023-09-22T05:22:41.658Z,15.16
2023-09-22T05:25:10.851Z,14.90
2023-09-22T05:27:38.577Z,14.92
2023-09-22T05:30:08.127Z,14.94
2023-09-22T05:32:36.032Z,14.83
2023-09-22T05:35:04.107Z,14.96
2023-09-22T05:37:33.466Z,14.96
2023-09-22T05:40:02.266Z,15.14
2023-09-22T05:42:30.440Z,15.03
2023-09-22T05:44:58.114Z,15.15
2023-09-22T05:47:26.283Z,15.11
2023-09-22T05:49:54.014Z,15.17
2023-09-22T05:52:21.751Z,15.09
2023-09-22T05:54:50.821Z,15.06
2023-09-22T05:57:18.564Z,15.24
2023-09-22T05:59:48.125Z,15.17
2023-09-22T06:02:15.775Z,15.41
2023-09-22T06:04:43.581Z,15.47
2023-09-22T06:07:13.988Z,15.47
2023-09-22T06:09:41.760Z,15.48
2023-09-22T06:12:10.841Z,15.54
2023-09-22T06:14:40.310Z,15.45
2023-09-22T06:17:07.911Z,15.71
2023-09-22T06:19:35.580Z,15.78
2023-09-22T06:22:04.420Z,15.81
2023-09-22T06:24:32.182Z,15.90
2023-09-22T06:27:00.401Z,15.62
2023-09-22T06:29:29.458Z,15.80
2023-09-22T06:31:57.309Z,15.86
2023-09-22T06:34:25.038Z,15.69
2023-09-22T06:36:52.642Z,15.46
2023-09-22T06:39:20.320Z,15.60
2023-09-22T06:41:47.931Z,15.73
2023-09-22T06:44:17.282Z,15.92
2023-09-22T06:46:46.520Z,15.90
2023-09-22T06:49:14.298Z,15.69
2023-09-22T06:51:42.541Z,15.75
2023-09-22T06:54:10.156Z,15.76
2023-09-22T06:56:49.266Z,15.78
2023-09-22T06:59:18.620Z,15.90
2023-09-22T07:01:47.817Z,15.97
2023-09-22T07:04:15.667Z,16.03
2023-09-22T07:06:43.405Z,16.00
2023-09-22T07:09:13.108Z,15.77
2023-09-22T07:11:42.199Z,16.05
2023-09-22T07:14:10.005Z,16.08
2023-09-22T07:16:38.125Z,16.06
2023-09-22T07:19:08.021Z,15.68
2023-09-22T07:21:35.980Z,16.14
2023-09-22T07:24:04.026Z,16.03
2023-09-22T07:26:31.693Z,16.25
2023-09-22T07:29:00.509Z,16.40
2023-09-22T07:31:32.114Z,16.33
2023-09-22T07:34:00.508Z,16.03
2023-09-22T07:36:29.983Z,16.45
2023-09-22T07:38:57.952Z,16.37
2023-09-22T07:41:25.950Z,16.48
2023-09-22T07:43:54.298Z,16.43
2023-09-22T07:46:24.304Z,16.40
2023-09-22T07:48:52.589Z,16.25
2023-09-22T07:51:21.258Z,16.31
2023-09-22T07:53:50.324Z,16.58
2023-09-22T07:56:19.772Z,16.57
2023-09-22T07:58:55.310Z,16.91
2023-09-22T08:01:31.002Z,16.85
2023-09-22T08:03:58.860Z,16.67
2023-09-22T08:06:28.210Z,16.75
2023-09-22T08:08:57.517Z,16.95
2023-09-22T08:11:25.370Z,16.68
2023-09-22T08:13:52.983Z,16.98
2023-09-22T08:16:21.592Z,17.47
2023-09-22T08:18:49.556Z,17.62
2023-09-22T08:21:17.227Z,17.76
2023-09-22T08:23:49.357Z,17.27
2023-09-22T08:26:20.094Z,16.86
2023-09-22T08:28:48.294Z,17.95
2023-09-22T08:31:16.463Z,18.38
2023-09-22T08:33:44.509Z,17.53
2023-09-22T08:36:12.396Z,17.67
2023-09-22T08:38:40.177Z,17.19
2023-09-22T08:41:08.384Z,17.19
2023-09-22T08:43:37.761Z,16.98
2023-09-22T08:46:06.247Z,16.84
2023-09-22T08:48:34.080Z,16.88
2023-09-22T08:51:01.859Z,16.70
2023-09-22T08:53:31.082Z,16.66
2023-09-22T08:55:58.863Z,16.32
2023-09-22T08:58:27.093Z,16.04
2023-09-22T09:00:56.189Z,16.31
2023-09-22T09:03:24.015Z,16.31
2023-09-22T09:05:51.819Z,16.27
2023-09-22T09:08:22.563Z,16.37
2023-09-22T09:10:51.217Z,16.50
2023-09-22T09:13:19.980Z,16.75
2023-09-22T09:15:49.397Z,16.44
2023-09-22T09:18:20.831Z,16.65
2023-09-22T09:20:49.918Z,16.92
2023-09-22T09:23:20.005Z,16.83
2023-09-22T09:25:49.129Z,16.62
2023-09-22T09:28:18.220Z,16.64
2023-09-22T09:30:52.579Z,17.05
2023-09-22T09:33:26.426Z,17.68
2023-09-22T09:35:55.139Z,18.11
2023-09-22T09:38:26.387Z,18.56
2023-09-22T09:40:54.527Z,19.17
2023-09-22T09:43:23.041Z,18.98
2023-09-22T09:45:52.763Z,18.81
2023-09-22T09:48:22.212Z,19.34
2023-09-22T09:50:52.442Z,20.28
2023-09-22T09:53:28.329Z,20.47
2023-09-22T09:56:00.391Z,20.79
2023-09-22T09:58:32.055Z,21.21
2023-09-22T10:01:02.048Z,19.57
2023-09-22T10:03:30.598Z,19.58
2023-09-22T10:06:00.138Z,19.93
2023-09-22T10:08:29.715Z,19.66
2023-09-22T10:11:00.982Z,19.48
2023-09-22T10:13:29.863Z,18.88
2023-09-22T10:15:59.741Z,18.74
2023-09-22T10:18:50.817Z,19.49
2023-09-22T10:21:44.691Z,20.92
2023-09-22T10:24:20.584Z,21.10
2023-09-22T10:27:16.141Z,22.44
2023-09-22T10:29:52.467Z,21.84
2023-09-22T10:32:29.856Z,20.69
2023-09-22T10:34:59.862Z,21.03
2023-09-22T10:37:30.351Z,21.11
2023-09-22T10:39:59.230Z,20.61
2023-09-22T10:42:29.078Z,20.65
2023-09-22T10:45:01.215Z,21.32
2023-09-22T10:47:38.556Z,21.80
2023-09-22T10:50:20.438Z,21.79
2023-09-22T10:52:54.473Z,20.85
2023-09-22T10:55:26.959Z,21.37
2023-09-22T10:57:55.497Z,21.42
2023-09-22T11:00:23.780Z,22.11
2023-09-22T11:02:51.582Z,22.16
2023-09-22T11:05:20.311Z,21.74
2023-09-22T11:07:48.806Z,22.58
2023-09-22T11:10:21.800Z,22.60
2023-09-22T11:12:51.234Z,22.67
2023-09-22T11:15:19.744Z,23.14
2023-09-22T11:17:50.742Z,23.48
2023-09-22T11:20:19.790Z,24.10
2023-09-22T11:22:48.290Z,22.28
2023-09-22T11:25:16.178Z,22.03
2023-09-22T11:27:48.526Z,21.97
2023-09-22T11:30:19.252Z,23.01
2023-09-22T11:32:47.919Z,22.49
2023-09-22T11:35:39.037Z,23.13
2023-09-22T11:38:27.469Z,22.91
2023-09-22T11:41:05.198Z,23.19
2023-09-22T11:43:34.290Z,24.22
2023-09-22T11:46:09.663Z,24.67
2023-09-22T11:49:09.237Z,24.18
2023-09-22T11:51:49.140Z,23.78
2023-09-22T11:54:19.256Z,22.66
2023-09-22T11:56:48.477Z,23.88
2023-09-22T11:59:20.185Z,24.40
2023-09-22T12:01:49.146Z,25.07
2023-09-22T12:04:17.519Z,24.41
2023-09-22T12:06:45.411Z,23.21
2023-09-22T12:09:14.280Z,22.69
2023-09-22T12:11:42.967Z,23.28
2023-09-22T12:14:11.689Z,23.76
2023-09-22T12:16:41.392Z,22.88
2023-09-22T12:19:09.382Z,22.59
2023-09-22T12:21:37.542Z,22.22
2023-09-22T12:24:05.895Z,22.72
2023-09-22T12:26:33.775Z,22.27
2023-09-22T12:29:05.201Z,22.82
2023-09-22T12:31:34.648Z,22.95
2023-09-22T12:34:03.858Z,22.41
2023-09-22T12:36:31.772Z,22.87
2023-09-22T12:39:00.162Z,22.92
2023-09-22T12:41:27.821Z,22.90
2023-09-22T12:43:56.285Z,23.25
2023-09-22T12:46:24.399Z,22.17
2023-09-22T12:48:52.999Z,22.92
2023-09-22T12:51:22.136Z,22.11
2023-09-22T12:53:50.449Z,22.11
2023-09-22T12:56:18.185Z,22.38
2023-09-22T12:58:46.548Z,22.20
2023-09-22T13:01:14.437Z,22.31
2023-09-22T13:03:42.274Z,22.53
2023-09-22T13:06:10.053Z,22.63
2023-09-22T13:08:40.436Z,22.41
2023-09-22T13:11:08.264Z,22.49
2023-09-22T13:13:36.026Z,22.44
2023-09-22T13:16:04.410Z,22.22
2023-09-22T13:18:32.288Z,22.08
2023-09-22T13:21:00.073Z,22.50
2023-09-22T13:23:27.855Z,22.87
2023-09-22T13:25:56.980Z,22.91
2023-09-22T13:28:25.211Z,22.60
2023-09-22T13:30:55.796Z,22.18
2023-09-22T13:33:24.532Z,22.26
2023-09-22T13:35:52.613Z,22.52
2023-09-22T13:38:20.771Z,22.31
2023-09-22T13:40:51.199Z,22.50
2023-09-22T13:43:22.711Z,21.98
2023-09-22T13:45:50.538Z,21.84
2023-09-22T13:48:18.434Z,21.53
2023-09-22T13:50:52.954Z,21.86
2023-09-22T13:53:20.626Z,22.56
2023-09-22T13:55:48.297Z,22.54
2023-09-22T13:58:15.998Z,22.86
2023-09-22T14:00:46.513Z,22.93
2023-09-22T14:03:15.178Z,23.39
2023-09-22T14:05:42.946Z,23.71
2023-09-22T14:08:15.668Z,23.89
2023-09-22T14:10:43.549Z,23.45
2023-09-22T14:13:12.535Z,23.57
2023-09-22T14:15:40.366Z,22.95
2023-09-22T14:18:09.606Z,22.82
2023-09-22T14:20:37.355Z,22.94
2023-09-22T14:23:05.619Z,23.30
2023-09-22T14:25:33.293Z,23.24
2023-09-22T14:28:00.951Z,22.44
2023-09-22T14:30:28.891Z,22.54
2023-09-22T14:32:57.626Z,22.40
2023-09-22T14:35:27.925Z,21.58
2023-09-22T14:37:56.762Z,21.87
2023-09-22T14:40:24.782Z,21.73
2023-09-22T14:42:54.839Z,21.85
2023-09-22T14:45:23.157Z,21.53
2023-09-22T14:47:54.080Z,21.62
2023-09-22T14:50:22.524Z,21.73
2023-09-22T14:52:53.433Z,21.50
2023-09-22T14:55:21.988Z,21.49
2023-09-22T14:57:50.339Z,21.43
2023-09-22T15:00:18.264Z,21.29
2023-09-22T15:02:47.611Z,21.29
2023-09-22T15:05:17.226Z,21.21
2023-09-22T15:07:47.099Z,20.79
2023-09-22T15:10:16.490Z,21.30
2023-09-22T15:12:44.456Z,21.38
2023-09-22T15:15:12.208Z,21.53
2023-09-22T15:17:40.552Z,21.53
2023-09-22T15:20:08.986Z,21.51
2023-09-22T15:22:36.923Z,21.51
2023-09-22T15:25:05.026Z,21.66
2023-09-22T15:27:34.329Z,21.65
2023-09-22T15:30:03.808Z,21.48
2023-09-22T15:32:32.008Z,21.42
2023-09-22T15:34:59.864Z,21.43
2023-09-22T15:37:27.822Z,21.49
2023-09-22T15:39:55.542Z,21.41
2023-09-22T15:42:24.321Z,21.14
2023-09-22T15:44:53.327Z,21.25
2023-09-22T15:47:21.419Z,21.33
2023-09-22T15:49:49.497Z,21.28
2023-09-22T15:52:17.200Z,21.28
2023-09-22T15:54:44.946Z,21.07
2023-09-22T15:57:12.588Z,20.85
2023-09-22T15:59:40.151Z,20.51
2023-09-22T16:02:10.082Z,19.98
2023-09-22T16:04:38.075Z,19.27
2023-09-22T16:07:06.115Z,18.94
2023-09-22T16:09:33.887Z,18.85
2023-09-22T16:12:01.545Z,18.60
2023-09-22T16:14:29.935Z,18.25
2023-09-22T16:16:58.400Z,18.15
2023-09-22T16:19:27.983Z,18.06
2023-09-22T16:21:55.846Z,17.53
2023-09-22T16:24:23.574Z,16.84
2023-09-22T16:26:51.219Z,15.95
2023-09-22T16:29:21.573Z,15.38
2023-09-22T16:31:49.292Z,15.16
2023-09-22T16:34:16.964Z,15.08
2023-09-22T16:36:45.985Z,14.84
2023-09-22T16:39:13.616Z,14.77
2023-09-22T16:41:41.293Z,14.82
2023-09-22T16:44:08.926Z,14.84
2023-09-22T16:46:36.661Z,15.01
2023-09-22T16:49:05.321Z,14.97
2023-09-22T16:51:33.033Z,15.12
2023-09-22T16:54:03.381Z,15.09
2023-09-22T16:56:31.132Z,15.02
2023-09-22T16:58:58.867Z,14.97
2023-09-22T17:01:26.713Z,15.15
2023-09-22T17:03:54.860Z,15.21
2023-09-22T17:06:23.692Z,15.09
2023-09-22T17:08:51.376Z,15.08
2023-09-22T17:11:20.384Z,14.91
2023-09-22T17:13:49.334Z,15.07
2023-09-22T17:16:17.502Z,14.84
2023-09-22T17:18:47.078Z,14.82
2023-09-22T17:21:25.288Z,14.80
2023-09-22T17:23:59.442Z,15.09
2023-09-22T17:26:29.320Z,14.97
2023-09-22T17:28:57.818Z,14.76
2023-09-22T17:31:25.800Z,14.95
2023-09-22T17:33:54.582Z,14.81
2023-09-22T17:36:22.608Z,15.06
2023-09-22T17:38:50.237Z,15.15
2023-09-22T17:41:17.898Z,15.27
2023-09-22T17:43:47.450Z,15.32
2023-09-22T17:46:15.116Z,14.83
2023-09-22T17:48:43.005Z,15.45
2023-09-22T17:51:10.664Z,15.45
2023-09-22T17:53:39.089Z,15.59
2023-09-22T17:56:07.551Z,15.52
2023-09-22T17:58:35.337Z,15.57
2023-09-22T18:01:06.337Z,15.30
2023-09-22T18:03:34.056Z,14.96
2023-09-22T18:06:01.737Z,14.71
2023-09-22T18:08:29.625Z,15.16
2023-09-22T18:10:58.713Z,15.51
2023-09-22T18:13:26.578Z,15.66
2023-09-22T18:15:54.992Z,15.67
2023-09-22T18:18:24.308Z,15.50
2023-09-22T18:20:54.317Z,14.99
2023-09-22T18:23:22.385Z,15.30
2023-09-22T18:25:55.411Z,15.38
2023-09-22T18:28:24.056Z,15.43
2023-09-22T18:30:55.247Z,15.04
2023-09-22T18:33:24.863Z,14.94
2023-09-22T18:35:56.677Z,15.22
2023-09-22T18:38:25.080Z,15.07
2023-09-22T18:40:53.672Z,14.77
2023-09-22T18:43:23.907Z,14.14
2023-09-22T18:45:53.148Z,14.35
2023-09-22T18:48:21.266Z,14.86
2023-09-22T18:50:52.402Z,14.92
2023-09-22T18:53:21.334Z,15.06
2023-09-22T18:55:52.893Z,14.55
2023-09-22T18:58:21.004Z,14.88
2023-09-22T19:00:53.562Z,14.82
2023-09-22T19:03:21.481Z,14.76
2023-09-22T19:05:51.239Z,14.19
2023-09-22T19:08:19.212Z,14.59
2023-09-22T19:10:49.088Z,14.44
2023-09-22T19:13:17.210Z,14.50
2023-09-22T19:15:45.922Z,14.80
2023-09-22T19:18:16.001Z,14.97
2023-09-22T19:20:44.208Z,14.92
2023-09-22T19:23:14.931Z,14.83
2023-09-22T19:25:43.128Z,14.76
2023-09-22T19:28:11.825Z,14.72
2023-09-22T19:30:42.710Z,14.90
2023-09-22T19:33:11.567Z,14.58
2023-09-22T19:35:42.658Z,14.86
2023-09-22T19:38:10.790Z,14.89
2023-09-22T19:40:42.393Z,14.33
2023-09-22T19:43:10.789Z,14.06
2023-09-22T19:45:38.747Z,14.60
2023-09-22T19:48:08.153Z,14.94
2023-09-22T19:50:38.744Z,14.27
2023-09-22T19:53:07.642Z,14.61
2023-09-22T19:55:36.372Z,14.74
2023-09-22T19:58:05.857Z,14.65
2023-09-22T20:00:40.643Z,14.24
2023-09-22T20:03:08.916Z,14.21
2023-09-22T20:05:37.313Z,14.12
2023-09-22T20:08:05.698Z,14.32
2023-09-22T20:10:34.031Z,14.34
2023-09-22T20:13:01.881Z,14.28
2023-09-22T20:15:30.952Z,14.38
2023-09-22T20:17:58.657Z,14.24
2023-09-22T20:20:27.354Z,14.11
2023-09-22T20:22:55.464Z,14.09
2023-09-22T20:25:23.349Z,14.11
2023-09-22T20:27:51.269Z,14.00
2023-09-22T20:30:19.027Z,14.04
2023-09-22T20:32:48.513Z,13.84
2023-09-22T20:35:16.702Z,14.05
2023-09-22T20:37:44.351Z,14.32
2023-09-22T20:40:13.477Z,14.38
2023-09-22T20:42:41.190Z,14.29
2023-09-22T20:45:12.935Z,14.36
2023-09-22T20:47:40.700Z,14.17
2023-09-22T20:50:14.471Z,13.84
2023-09-22T20:52:43.100Z,13.85
2023-09-22T20:55:12.386Z,13.65
2023-09-22T20:57:40.842Z,13.68
2023-09-22T21:00:12.754Z,13.62
2023-09-22T21:02:40.904Z,13.58
2023-09-22T21:05:11.084Z,13.50
2023-09-22T21:07:39.144Z,13.58
2023-09-22T21:10:09.114Z,13.61
2023-09-22T21:12:36.806Z,13.61
2023-09-22T21:15:05.126Z,13.51
2023-09-22T21:17:32.818Z,13.52
2023-09-22T21:20:00.740Z,13.36
2023-09-22T21:22:29.786Z,13.31
2023-09-22T21:24:57.507Z,13.32
2023-09-22T21:27:25.296Z,13.34
2023-09-22T21:29:53.040Z,13.55
2023-09-22T21:32:23.438Z,13.44
2023-09-22T21:34:51.295Z,13.52
2023-09-22T21:37:19.055Z,13.65
2023-09-22T21:39:48.246Z,13.64
2023-09-22T21:42:15.917Z,13.44
2023-09-22T21:44:44.929Z,13.53
2023-09-22T21:47:12.843Z,13.55
2023-09-22T21:49:41.241Z,13.42
2023-09-22T21:52:09.050Z,13.27
2023-09-22T21:54:36.908Z,13.19
2023-09-22T21:57:10.635Z,13.03
2023-09-22T21:59:38.556Z,12.99
2023-09-22T22:02:06.480Z,12.90
2023-09-22T22:04:35.028Z,12.85
2023-09-22T22:07:02.843Z,12.87
2023-09-22T22:09:30.846Z,12.81
2023-09-22T22:11:59.079Z,12.87
2023-09-22T22:14:28.133Z,12.79
2023-09-22T22:16:55.996Z,12.83
2023-09-22T22:19:26.221Z,12.77
2023-09-22T22:21:56.426Z,12.94
2023-09-22T22:24:25.424Z,12.75
2023-09-22T22:26:53.597Z,12.70
2023-09-22T22:29:21.467Z,12.79
2023-09-22T22:31:50.573Z,12.65
2023-09-22T22:34:20.576Z,12.55
2023-09-22T22:36:49.057Z,12.64
2023-09-22T22:39:20.301Z,12.58
2023-09-22T22:41:49.583Z,12.61
2023-09-22T22:44:17.609Z,12.67
2023-09-22T22:46:46.292Z,12.65
2023-09-22T22:49:15.980Z,12.70
2023-09-22T22:51:43.672Z,12.62
2023-09-22T22:54:14.083Z,12.60
2023-09-22T22:56:42.420Z,12.57
2023-09-22T22:59:10.890Z,12.64
2023-09-22T23:01:38.948Z,12.52
2023-09-22T23:04:08.312Z,12.64
2023-09-22T23:06:39.278Z,12.61
2023-09-22T23:09:09.293Z,12.62
2023-09-22T23:11:38.214Z,12.70
2023-09-22T23:14:06.310Z,12.82
2023-09-22T23:16:34.277Z,12.67
2023-09-22T23:19:02.477Z,12.78
2023-09-22T23:21:33.346Z,12.68
2023-09-22T23:24:05.501Z,12.63
2023-09-22T23:26:33.231Z,12.44
2023-09-22T23:29:02.253Z,12.55
2023-09-22T23:31:30.093Z,12.47
2023-09-22T23:34:00.592Z,12.50
2023-09-22T23:36:29.112Z,12.43
2023-09-22T23:38:58.295Z,12.48
2023-09-22T23:41:28.243Z,12.42
2023-09-22T23:43:56.822Z,12.49
2023-09-22T23:46:25.918Z,12.21
2023-09-22T23:48:54.416Z,12.23
2023-09-22T23:51:29.894Z,12.16
2023-09-22T23:53:57.772Z,12.23
2023-09-22T23:56:26.910Z,12.21
2023-09-22T23:58:55.598Z,12.22
